Time;durP1;ratioP1;P1;durP2;ratioP2;P2;SDS_P1;SDS_P2;PMS_P1;PMS_P2;Temp;Humidity;BMP_temperature;BMP_pressure;BME280_temperature;BME280_humidity;BME280_pressure;Samples;Min_cycle;Max_cycle;Signal;HPM_P1;HPM_P2
2023/03/21 00:01:05;;;;;;;17.08;11.95;;;9.80;99.90;;;;;;6251621;22;20027;-89
2023/03/21 00:03:32;;;;;;;20.27;12.85;;;9.80;99.90;;;;;;6251020;22;20441;-90
2023/03/21 00:06:03;;;;;;;26.33;15.80;;;9.80;99.90;;;;;;6250687;22;20086;-90
2023/03/21 00:08:29;;;;;;;33.83;18.33;;;9.80;99.90;;;;;;6278175;22;20407;-90
2023/03/21 00:11:00;;;;;;;31.73;18.27;;;9.80;99.90;;;;;;6251459;22;20019;-90
2023/03/21 00:13:31;;;;;;;45.17;20.55;;;9.80;99.90;;;;;;6251059;22;20081;-90
2023/03/21 00:16:02;;;;;;;32.95;19.17;;;9.80;99.90;;;;;;6251077;22;20433;-91
2023/03/21 00:18:27;;;;;;;33.00;18.27;;;9.80;99.90;;;;;;6251436;22;20027;-90
2023/03/21 00:20:58;;;;;;;35.40;21.08;;;9.80;99.90;;;;;;6278536;22;20015;-90
2023/03/21 00:23:26;;;;;;;30.20;17.88;;;9.80;99.90;;;;;;6278741;22;20043;-92
2023/03/21 00:25:52;;;;;;;43.50;23.02;;;9.90;99.90;;;;;;6252125;22;20363;-91
2023/03/21 00:28:19;;;;;;;33.17;20.02;;;9.80;99.90;;;;;;6250831;22;20118;-90
2023/03/21 00:30:44;;;;;;;28.33;17.95;;;9.90;99.90;;;;;;6251419;22;20011;-91
2023/03/21 00:33:11;;;;;;;32.35;20.17;;;9.90;99.90;;;;;;6278809;22;20368;-91
2023/03/21 00:35:37;;;;;;;34.67;20.20;;;9.80;99.90;;;;;;6278459;22;20095;-91
2023/03/21 00:38:03;;;;;;;31.98;18.58;;;9.80;99.90;;;;;;6251849;22;20015;-90
2023/03/21 00:40:29;;;;;;;34.58;21.33;;;9.80;99.90;;;;;;6278221;22;20026;-90
2023/03/21 00:42:54;;;;;;;35.45;22.77;;;9.80;99.90;;;;;;6278541;22;20014;-91
2023/03/21 00:45:21;;;;;;;35.15;21.95;;;9.80;99.90;;;;;;6278748;22;20428;-90
2023/03/21 00:47:47;;;;;;;34.83;22.67;;;9.80;99.90;;;;;;6251051;22;20456;-91
2023/03/21 00:50:12;;;;;;;39.67;23.80;;;9.80;99.90;;;;;;6250984;22;20020;-91
2023/03/21 00:52:38;;;;;;;39.22;24.15;;;9.80;99.90;;;;;;6251459;22;20027;-90
2023/03/21 00:55:06;;;;;;;34.53;20.85;;;9.80;99.90;;;;;;6251282;22;20134;-90
2023/03/21 00:57:34;;;;;;;30.30;19.85;;;9.90;99.90;;;;;;6251178;22;20578;-90
2023/03/21 00:59:59;;;;;;;31.90;19.80;;;9.80;99.90;;;;;;6251377;22;20015;-91
2023/03/21 01:02:25;;;;;;;31.88;21.02;;;9.90;99.90;;;;;;6277590;22;20012;-91
2023/03/21 01:04:52;;;;;;;36.20;22.23;;;9.80;99.90;;;;;;6249643;22;20471;-90
2023/03/21 01:07:18;;;;;;;34.85;22.55;;;9.80;99.90;;;;;;6277079;22;20073;-91
2023/03/21 01:09:44;;;;;;;35.45;22.83;;;9.90;99.90;;;;;;6249332;22;20440;-90
2023/03/21 01:12:10;;;;;;;32.55;21.70;;;9.90;99.90;;;;;;6249079;22;20121;-91
2023/03/21 01:14:36;;;;;;;35.17;22.63;;;9.90;99.90;;;;;;6249596;22;20024;-91
2023/03/21 01:17:02;;;;;;;34.45;23.02;;;9.90;99.90;;;;;;6276511;22;20324;-91
2023/03/21 01:19:28;;;;;;;30.70;21.20;;;9.90;99.90;;;;;;6248994;22;20386;-89
2023/03/21 01:21:54;;;;;;;29.98;21.65;;;9.80;99.90;;;;;;6276723;22;20091;-91
2023/03/21 01:24:20;;;;;;;35.05;22.92;;;9.90;99.90;;;;;;6248986;22;20014;-91
2023/03/21 01:26:45;;;;;;;30.45;21.58;;;9.90;99.90;;;;;;6276604;22;20385;-91
2023/03/21 01:29:11;;;;;;;27.92;20.23;;;9.90;99.90;;;;;;6276984;22;20011;-91
2023/03/21 01:31:37;;;;;;;29.23;21.75;;;9.90;99.90;;;;;;6276376;22;20098;-91
2023/03/21 01:34:02;;;;;;;28.60;21.48;;;9.90;99.90;;;;;;6276594;22;20390;-90
2023/03/21 01:36:28;;;;;;;29.52;20.73;;;9.90;99.90;;;;;;6249244;22;20138;-90
2023/03/21 01:38:54;;;;;;;29.52;21.80;;;9.90;99.90;;;;;;6248937;22;20482;-91
2023/03/21 01:41:28;;;;;;;30.15;21.33;;;9.90;99.90;;;;;;6248848;22;20015;-91
2023/03/21 01:43:54;;;;;;;31.60;22.10;;;9.80;99.90;;;;;;6276510;22;20012;-90
2023/03/21 01:46:27;;;;;;;28.58;21.55;;;9.90;99.90;;;;;;6249332;22;20463;-91
2023/03/21 01:49:14;;;;;;;31.20;22.60;;;9.90;99.90;;;;;;6249829;22;20011;-91
2023/03/21 01:51:44;;;;;;;32.15;22.25;;;9.90;99.90;;;;;;6249304;22;20016;-91
2023/03/21 01:54:15;;;;;;;28.60;22.05;;;9.90;99.90;;;;;;6249383;22;20016;-90
2023/03/21 01:56:45;;;;;;;29.98;21.75;;;9.90;99.90;;;;;;6276682;22;20011;-90
2023/03/21 01:59:20;;;;;;;31.38;22.92;;;9.90;99.90;;;;;;6275270;22;20337;-90
2023/03/21 02:01:47;;;;;;;29.95;21.55;;;9.90;99.90;;;;;;6249551;22;20077;-91
2023/03/21 02:04:13;;;;;;;27.63;20.70;;;9.90;99.90;;;;;;6196496;22;1234002;-90
2023/03/21 02:07:08;;;;;;;28.70;19.50;;;9.90;99.90;;;;;;6276398;22;20091;-90
2023/03/21 02:09:35;;;;;;;27.42;19.10;;;9.90;99.90;;;;;;6257003;22;20050;-91
2023/03/21 02:12:02;;;;;;;25.73;18.42;;;9.90;99.90;;;;;;6277572;22;20329;-90
2023/03/21 02:14:32;;;;;;;27.20;18.60;;;9.90;99.90;;;;;;6250100;22;20113;-90
2023/03/21 02:17:29;;;;;;;26.70;19.10;;;9.90;99.90;;;;;;6277422;22;20491;-91
2023/03/21 02:20:13;;;;;;;26.77;18.77;;;9.90;99.90;;;;;;6225205;22;20055;-90
2023/03/21 02:23:00;;;;;;;27.88;19.38;;;9.90;99.90;;;;;;6250471;22;20503;-90
2023/03/21 02:25:55;;;;;;;27.33;18.77;;;9.80;99.90;;;;;;6250142;22;20076;-90
2023/03/21 02:28:55;;;;;;;26.33;18.42;;;9.90;99.90;;;;;;6249320;22;20070;-90
2023/03/21 02:31:41;;;;;;;27.27;18.00;;;9.90;99.90;;;;;;6276188;22;20018;-90
2023/03/21 02:34:38;;;;;;;26.95;18.52;;;9.90;99.90;;;;;;6277234;22;20012;-91
2023/03/21 02:37:25;;;;;;;29.88;18.70;;;9.90;99.90;;;;;;6277351;22;20018;-90
2023/03/21 02:40:12;;;;;;;25.95;17.70;;;9.90;99.90;;;;;;6250312;22;20023;-90
2023/03/21 02:42:58;;;;;;;24.50;17.45;;;9.90;99.90;;;;;;6250340;22;20016;-90
2023/03/21 02:45:29;;;;;;;22.60;16.98;;;9.80;99.90;;;;;;6250433;22;20067;-91
2023/03/21 02:48:03;;;;;;;23.00;16.85;;;9.90;99.90;;;;;;6277533;22;20012;-90
2023/03/21 02:50:32;;;;;;;25.08;17.10;;;9.90;99.90;;;;;;6277600;22;20016;-91
2023/03/21 02:52:59;;;;;;;22.95;15.95;;;9.90;99.90;;;;;;6250877;22;20012;-91
2023/03/21 02:55:27;;;;;;;23.25;16.55;;;9.90;99.90;;;;;;6277282;22;20019;-92
2023/03/21 02:57:56;;;;;;;20.55;15.70;;;9.90;99.90;;;;;;6250425;22;20137;-92
2023/03/21 03:00:28;;;;;;;22.58;15.95;;;9.90;99.90;;;;;;6277347;22;20022;-92
2023/03/21 03:02:54;;;;;;;19.98;14.55;;;9.80;99.90;;;;;;6249720;22;20342;-92
2023/03/21 03:05:24;;;;;;;19.80;15.00;;;9.90;99.90;;;;;;6250526;22;20042;-91
2023/03/21 03:07:50;;;;;;;17.90;14.80;;;9.90;99.90;;;;;;6250772;22;20016;-91
2023/03/21 03:10:37;;;;;;;18.35;14.65;;;9.90;99.90;;;;;;6276849;22;20027;-91
2023/03/21 03:13:24;;;;;;;18.15;14.05;;;9.80;99.90;;;;;;6277686;22;20020;-90
2023/03/21 03:16:10;;;;;;;19.35;14.57;;;9.90;99.90;;;;;;6250196;22;20016;-90
2023/03/21 03:18:53;;;;;;;20.23;15.10;;;9.80;99.90;;;;;;6277509;22;20016;-92
2023/03/21 03:21:27;;;;;;;19.57;14.87;;;9.90;99.90;;;;;;6277518;22;20008;-91
2023/03/21 03:24:19;;;;;;;22.42;15.65;;;9.80;99.90;;;;;;6276681;22;20334;-90
2023/03/21 03:26:44;;;;;;;20.67;15.90;;;9.90;99.90;;;;;;6250412;22;20074;-90
2023/03/21 03:29:15;;;;;;;19.70;15.73;;;9.80;99.90;;;;;;6276807;22;20007;-91
2023/03/21 03:31:55;;;;;;;19.58;15.00;;;9.90;99.90;;;;;;6249932;22;20023;-91
2023/03/21 03:34:25;;;;;;;22.60;15.48;;;9.90;99.90;;;;;;6276994;22;20015;-91
2023/03/21 03:36:55;;;;;;;17.23;13.48;;;9.90;99.90;;;;;;6277340;22;20051;-90
2023/03/21 03:39:30;;;;;;;18.73;14.77;;;9.90;99.90;;;;;;6249664;22;20090;-91
2023/03/21 03:42:01;;;;;;;19.08;13.80;;;9.90;99.90;;;;;;6277544;22;20015;-90
2023/03/21 03:44:27;;;;;;;18.05;14.48;;;9.90;99.90;;;;;;6249564;22;20011;-91
2023/03/21 03:47:07;;;;;;;20.60;16.00;;;9.90;99.90;;;;;;6249796;22;20099;-91
2023/03/21 03:49:45;;;;;;;20.23;15.85;;;9.90;99.90;;;;;;6251558;22;20042;-91
2023/03/21 03:52:21;;;;;;;18.50;14.73;;;9.90;99.90;;;;;;6278539;22;20449;-91
2023/03/21 03:54:49;;;;;;;18.35;14.57;;;9.90;99.90;;;;;;6251931;22;20012;-91
2023/03/21 03:57:16;;;;;;;19.90;14.85;;;9.90;99.90;;;;;;6278383;22;20459;-90
2023/03/21 03:59:44;;;;;;;17.83;14.00;;;9.90;99.90;;;;;;6251657;22;20007;-91
2023/03/21 04:02:09;;;;;;;20.25;15.00;;;9.90;99.90;;;;;;6252103;22;20020;-91
2023/03/21 04:04:35;;;;;;;19.02;14.57;;;9.90;99.90;;;;;;6250800;22;20402;-91
2023/03/21 04:07:02;;;;;;;21.60;15.77;;;9.90;99.90;;;;;;6278779;22;20050;-90
2023/03/21 04:09:28;;;;;;;18.05;14.57;;;9.90;99.90;;;;;;6251459;22;20051;-90
2023/03/21 04:11:55;;;;;;;19.17;14.55;;;9.90;99.90;;;;;;6251586;22;20051;-91
2023/03/21 04:14:21;;;;;;;19.98;14.95;;;9.90;99.90;;;;;;6251462;22;20019;-91
2023/03/21 04:16:48;;;;;;;17.67;14.20;;;9.90;99.90;;;;;;6251718;22;20015;-92
2023/03/21 04:19:14;;;;;;;19.50;13.85;;;9.90;99.90;;;;;;6278629;22;20007;-91
2023/03/21 04:21:41;;;;;;;17.90;13.30;;;9.90;99.90;;;;;;6279254;22;20057;-91
2023/03/21 04:24:07;;;;;;;19.08;14.07;;;9.90;99.90;;;;;;6279227;22;20374;-91
2023/03/21 04:26:34;;;;;;;17.48;13.68;;;9.90;99.90;;;;;;6251267;22;20022;-91
2023/03/21 04:29:01;;;;;;;15.90;12.95;;;9.90;99.90;;;;;;6278933;22;20008;-91
2023/03/21 04:31:30;;;;;;;17.55;13.57;;;9.90;99.90;;;;;;6251456;22;20014;-91
2023/03/21 04:34:08;;;;;;;17.65;14.05;;;9.90;99.90;;;;;;6251424;22;20102;-91
2023/03/21 04:36:37;;;;;;;18.15;13.43;;;9.90;99.90;;;;;;6278573;22;20494;-91
2023/03/21 04:39:10;;;;;;;17.70;13.60;;;9.90;99.90;;;;;;6252097;22;20030;-91
2023/03/21 04:41:37;;;;;;;16.73;13.18;;;9.90;99.90;;;;;;6251381;22;20099;-90
2023/03/21 04:44:03;;;;;;;17.20;12.95;;;9.90;99.90;;;;;;6279135;22;20071;-91
2023/03/21 04:46:28;;;;;;;15.52;12.32;;;9.90;99.90;;;;;;6251274;22;20024;-91
2023/03/21 04:48:54;;;;;;;17.58;12.80;;;9.90;99.90;;;;;;6251069;22;20023;-91
2023/03/21 04:51:20;;;;;;;17.65;12.93;;;9.90;99.90;;;;;;6278410;22;20016;-90
2023/03/21 04:53:48;;;;;;;20.30;15.45;;;9.90;99.90;;;;;;6278264;22;20013;-91
2023/03/21 04:56:14;;;;;;;18.42;13.95;;;9.90;99.90;;;;;;6250971;22;20401;-92
2023/03/21 04:58:41;;;;;;;18.60;14.00;;;9.90;99.90;;;;;;6278448;22;20014;-91
2023/03/21 05:01:07;;;;;;;18.10;14.23;;;9.90;99.90;;;;;;6250018;22;20073;-91
2023/03/21 05:03:33;;;;;;;20.85;14.57;;;9.90;99.90;;;;;;6250519;22;20336;-90
2023/03/21 05:05:59;;;;;;;23.05;15.27;;;9.90;99.90;;;;;;6278554;22;20015;-91
2023/03/21 05:08:25;;;;;;;18.70;15.02;;;9.90;99.90;;;;;;6250836;22;20083;-91
2023/03/21 05:10:51;;;;;;;18.65;15.43;;;9.90;99.90;;;;;;6278432;22;20023;-91
2023/03/21 05:13:17;;;;;;;19.88;15.25;;;9.90;99.90;;;;;;6250943;22;20016;-90
2023/03/21 05:15:42;;;;;;;21.70;15.55;;;9.90;99.90;;;;;;6249734;22;20095;-89
2023/03/21 05:18:11;;;;;;;19.38;15.00;;;9.90;99.90;;;;;;6250128;22;20012;-89
2023/03/21 05:20:43;;;;;;;22.65;17.63;;;9.90;99.90;;;;;;6277653;22;20026;-90
2023/03/21 05:23:10;;;;;;;18.08;14.43;;;9.90;99.90;;;;;;6276825;22;20045;-91
2023/03/21 05:25:39;;;;;;;22.48;17.70;;;9.90;99.90;;;;;;6250718;22;20019;-91
2023/03/21 05:28:05;;;;;;;23.95;18.88;;;9.90;99.90;;;;;;6278102;22;20015;-91
2023/03/21 05:30:32;;;;;;;23.17;16.35;;;9.90;99.90;;;;;;6249046;22;20008;-90
2023/03/21 05:33:13;;;;;;;21.60;16.95;;;9.90;99.90;;;;;;6250096;22;20081;-95
2023/03/21 05:35:42;;;;;;;22.55;17.23;;;9.90;99.90;;;;;;6248888;22;20012;-90
2023/03/21 05:38:07;;;;;;;24.45;18.73;;;9.90;99.90;;;;;;6248004;22;20043;-89
2023/03/21 05:40:33;;;;;;;22.42;17.38;;;9.80;99.90;;;;;;6249470;22;20086;-90
2023/03/21 05:43:01;;;;;;;25.67;18.45;;;9.80;99.90;;;;;;6250608;22;20437;-92
2023/03/21 05:52:33;;;;;;;21.95;17.38;;;9.80;99.90;;;;;;6277639;22;20011;-90
2023/03/21 05:54:58;;;;;;;22.38;18.27;;;9.80;99.90;;;;;;6250619;22;20049;-91
2023/03/21 05:57:26;;;;;;;22.20;17.38;;;9.90;99.90;;;;;;6249265;22;20016;-90
2023/03/21 05:59:52;;;;;;;24.38;18.20;;;9.80;99.90;;;;;;6247837;22;20022;-91
2023/03/21 06:02:20;;;;;;;24.30;18.92;;;9.80;99.90;;;;;;6247309;22;20092;-91
2023/03/21 06:04:46;;;;;;;23.92;18.25;;;9.80;99.90;;;;;;6276098;22;20023;-88
2023/03/21 06:07:11;;;;;;;22.90;18.27;;;9.80;99.90;;;;;;6276104;22;20065;-91
2023/03/21 06:09:37;;;;;;;22.65;17.70;;;9.80;99.90;;;;;;6248853;22;20095;-91
2023/03/21 06:12:03;;;;;;;21.58;17.67;;;9.80;99.90;;;;;;6276547;22;20019;-91
2023/03/21 06:14:29;;;;;;;22.20;18.30;;;9.80;99.90;;;;;;6248791;22;20022;-91
2023/03/21 06:16:54;;;;;;;21.05;17.83;;;9.80;99.90;;;;;;6250121;22;20073;-91
2023/03/21 06:19:20;;;;;;;27.33;19.13;;;9.90;99.90;;;;;;6248635;22;20019;-91
2023/03/21 06:21:46;;;;;;;23.05;18.80;;;9.80;99.90;;;;;;6276987;22;20020;-90
2023/03/21 06:24:12;;;;;;;25.20;19.45;;;9.90;99.90;;;;;;6250070;22;20116;-90
2023/03/21 06:26:38;;;;;;;21.33;18.15;;;9.90;99.90;;;;;;6276417;22;20495;-90
2023/03/21 06:29:03;;;;;;;23.98;19.52;;;9.80;99.90;;;;;;6250142;22;20097;-90
2023/03/21 06:31:29;;;;;;;21.98;17.92;;;9.80;99.90;;;;;;6249237;22;20245;-90
2023/03/21 06:33:55;;;;;;;20.77;17.27;;;9.90;99.90;;;;;;6248971;22;20055;-90
2023/03/21 06:36:20;;;;;;;21.98;17.95;;;9.90;99.90;;;;;;6276508;22;20479;-90
2023/03/21 06:38:47;;;;;;;20.60;17.08;;;9.80;99.90;;;;;;6250041;22;20340;-90
2023/03/21 06:41:14;;;;;;;19.80;16.55;;;9.80;99.90;;;;;;6275735;22;20023;-90
2023/03/21 06:43:39;;;;;;;21.35;17.27;;;9.80;99.90;;;;;;6276903;22;20019;-90
2023/03/21 06:46:05;;;;;;;23.30;17.58;;;9.80;99.90;;;;;;6278206;22;20027;-89
2023/03/21 06:48:32;;;;;;;22.92;17.67;;;9.90;99.90;;;;;;6247947;22;20015;-89
2023/03/21 06:50:57;;;;;;;19.00;15.38;;;9.90;99.90;;;;;;6249519;22;20034;-90
2023/03/21 06:53:28;;;;;;;20.58;16.92;;;9.90;99.90;;;;;;6276479;22;20019;-90
2023/03/21 06:55:54;;;;;;;19.25;15.30;;;9.90;99.90;;;;;;6248960;22;20012;-92
2023/03/21 06:58:20;;;;;;;20.05;16.05;;;9.90;99.90;;;;;;6249719;22;20391;-91
2023/03/21 07:00:46;;;;;;;18.90;15.35;;;9.90;99.90;;;;;;6276011;22;20020;-89
2023/03/21 07:03:12;;;;;;;19.38;15.13;;;9.90;99.90;;;;;;6248755;22;20014;-91
2023/03/21 07:05:39;;;;;;;19.77;16.35;;;9.90;99.90;;;;;;6249362;22;20019;-91
2023/03/21 07:08:09;;;;;;;20.48;15.98;;;9.90;99.90;;;;;;6276741;22;20014;-92
2023/03/21 07:10:38;;;;;;;17.77;14.85;;;9.90;99.90;;;;;;6248801;22;20024;-90
2023/03/21 07:13:04;;;;;;;18.17;15.25;;;9.90;99.90;;;;;;6276293;22;20039;-91
2023/03/21 07:15:29;;;;;;;19.48;14.82;;;9.90;99.90;;;;;;6248375;22;20019;-92
2023/03/21 07:17:55;;;;;;;17.90;13.10;;;9.90;99.90;;;;;;6249136;22;20020;-90
2023/03/21 07:20:21;;;;;;;16.55;13.00;;;9.90;99.90;;;;;;6248371;22;20015;-91
2023/03/21 07:22:47;;;;;;;16.17;13.35;;;9.90;99.90;;;;;;6249554;22;20011;-91
2023/03/21 07:25:12;;;;;;;13.07;11.25;;;9.90;99.90;;;;;;6277303;22;20016;-90
2023/03/21 07:27:38;;;;;;;17.05;12.50;;;9.90;99.90;;;;;;6250632;22;20133;-91
2023/03/21 07:30:04;;;;;;;13.35;11.20;;;9.90;99.90;;;;;;6277777;22;20019;-90
2023/03/21 07:32:34;;;;;;;14.65;12.07;;;10.00;99.90;;;;;;6277840;22;20435;-91
2023/03/21 07:35:00;;;;;;;13.10;10.23;;;10.00;99.90;;;;;;6250111;22;20097;-89
2023/03/21 07:37:26;;;;;;;10.85;9.05;;;10.00;99.90;;;;;;6276223;22;20022;-89
2023/03/21 07:39:52;;;;;;;10.55;8.82;;;9.90;99.90;;;;;;6276747;22;20399;-90
2023/03/21 07:42:18;;;;;;;11.77;9.35;;;10.00;99.90;;;;;;6276515;22;20008;-89
2023/03/21 07:44:43;;;;;;;10.60;8.52;;;10.00;99.90;;;;;;6249751;22;20514;-90
2023/03/21 07:47:09;;;;;;;10.45;8.32;;;10.00;99.90;;;;;;6275990;22;20102;-89
2023/03/21 07:49:36;;;;;;;10.40;8.38;;;10.00;99.90;;;;;;6277026;22;20347;-90
2023/03/21 07:52:02;;;;;;;10.73;8.05;;;10.00;99.90;;;;;;6250599;22;20020;-91
2023/03/21 07:54:28;;;;;;;13.32;9.45;;;10.00;99.90;;;;;;6250693;22;20016;-91
2023/03/21 07:56:55;;;;;;;12.35;9.48;;;10.00;99.90;;;;;;6250761;22;20016;-91
2023/03/21 07:59:21;;;;;;;13.23;10.27;;;10.00;99.90;;;;;;6249667;22;20046;-92
2023/03/21 08:01:47;;;;;;;14.90;10.63;;;10.00;99.90;;;;;;6278651;22;20016;-89
2023/03/21 08:04:12;;;;;;;13.85;10.82;;;10.00;99.90;;;;;;6249949;22;20026;-90
2023/03/21 08:06:38;;;;;;;16.55;11.82;;;10.00;99.90;;;;;;6277692;22;20042;-91
2023/03/21 08:09:04;;;;;;;15.05;10.85;;;9.90;99.90;;;;;;6251645;22;20018;-90
2023/03/21 08:11:30;;;;;;;12.80;9.90;;;10.00;99.90;;;;;;6276576;22;20482;-90
2023/03/21 08:13:57;;;;;;;13.48;10.90;;;9.90;99.90;;;;;;6277618;22;20042;-90
2023/03/21 08:16:22;;;;;;;13.90;11.48;;;9.90;99.90;;;;;;6277730;22;20015;-90
2023/03/21 08:18:48;;;;;;;13.65;11.18;;;10.00;99.90;;;;;;6249416;22;20042;-89
2023/03/21 08:21:14;;;;;;;14.20;11.43;;;10.00;99.90;;;;;;6276404;22;20073;-88
2023/03/21 08:23:40;;;;;;;14.77;11.50;;;10.00;99.90;;;;;;6250054;22;20012;-91
2023/03/21 08:26:06;;;;;;;14.20;10.95;;;10.00;99.90;;;;;;6249490;22;20080;-89
2023/03/21 08:28:32;;;;;;;16.13;12.13;;;10.00;99.90;;;;;;6250546;22;20103;-88
2023/03/21 08:30:58;;;;;;;15.75;10.73;;;10.00;99.90;;;;;;6250531;22;20015;-90
2023/03/21 08:33:23;;;;;;;15.30;10.43;;;10.00;99.90;;;;;;6248874;22;20074;-89
2023/03/21 08:35:49;;;;;;;14.88;11.05;;;10.00;99.90;;;;;;6250616;22;20015;-89
2023/03/21 08:38:19;;;;;;;17.98;11.55;;;10.00;99.90;;;;;;6277738;22;20023;-89
2023/03/21 08:40:49;;;;;;;18.60;12.13;;;10.00;99.90;;;;;;6249315;22;20352;-90
2023/03/21 08:43:15;;;;;;;15.13;11.15;;;10.00;99.90;;;;;;6249905;22;20016;-89
2023/03/21 08:45:40;;;;;;;17.52;10.93;;;10.00;99.90;;;;;;6250193;22;20016;-91
2023/03/21 08:48:06;;;;;;;16.35;11.57;;;10.00;99.90;;;;;;6249858;22;20102;-90
2023/03/21 08:50:32;;;;;;;15.38;12.20;;;10.10;99.90;;;;;;6250164;22;20015;-90
2023/03/21 08:53:03;;;;;;;16.27;11.95;;;10.00;99.90;;;;;;6249670;22;20015;-90
2023/03/21 08:55:30;;;;;;;18.98;12.05;;;10.10;99.90;;;;;;6249434;22;20019;-89
2023/03/21 08:57:57;;;;;;;17.30;12.88;;;10.10;99.90;;;;;;6276973;22;20066;-90
2023/03/21 09:00:22;;;;;;;21.00;13.68;;;10.10;99.90;;;;;;6249662;22;20020;-90
2023/03/21 09:02:50;;;;;;;16.58;12.85;;;10.10;99.90;;;;;;6276982;22;20476;-90
2023/03/21 09:05:17;;;;;;;14.70;11.18;;;10.10;99.90;;;;;;6250285;22;20028;-89
2023/03/21 09:07:44;;;;;;;16.02;11.88;;;10.10;99.90;;;;;;6249324;22;20095;-89
2023/03/21 09:10:14;;;;;;;27.92;18.15;;;10.10;99.90;;;;;;6250662;22;20019;-90
2023/03/21 09:12:41;;;;;;;20.98;14.70;;;10.10;99.90;;;;;;6250539;22;20011;-89
2023/03/21 09:15:11;;;;;;;25.65;14.32;;;10.10;99.90;;;;;;6249390;22;20401;-88
2023/03/21 09:17:41;;;;;;;23.77;15.40;;;10.10;99.90;;;;;;6277183;22;20016;-91
2023/03/21 09:20:17;;;;;;;21.95;13.85;;;10.10;99.90;;;;;;6250430;22;20073;-90
2023/03/21 09:22:46;;;;;;;25.25;14.70;;;10.10;99.90;;;;;;6277341;22;20012;-89
2023/03/21 09:25:14;;;;;;;22.20;14.88;;;10.10;99.90;;;;;;6250031;22;20038;-89
2023/03/21 09:27:40;;;;;;;26.42;16.33;;;10.10;99.90;;;;;;6248483;22;20012;-88
2023/03/21 09:30:08;;;;;;;26.70;16.67;;;10.10;99.90;;;;;;6249084;22;20274;-91
2023/03/21 09:32:34;;;;;;;25.83;15.05;;;10.10;99.90;;;;;;6248897;22;20014;-89
2023/03/21 09:34:59;;;;;;;25.02;16.17;;;10.10;99.90;;;;;;6276370;22;20012;-88
2023/03/21 09:37:25;;;;;;;21.92;14.38;;;10.10;99.90;;;;;;6275949;22;20008;-88
2023/03/21 09:39:51;;;;;;;30.15;17.23;;;10.10;99.90;;;;;;6249559;22;20011;-88
2023/03/21 09:42:42;;;;;;;25.60;16.65;;;10.10;99.90;;;;;;6248886;22;20318;-89
2023/03/21 09:45:24;;;;;;;26.45;17.27;;;10.00;99.90;;;;;;6249102;22;20008;-88
2023/03/21 09:47:53;;;;;;;26.53;16.20;;;10.00;99.90;;;;;;6248530;22;20039;-88
2023/03/21 09:50:21;;;;;;;24.90;15.32;;;10.00;99.90;;;;;;6274998;22;20454;-90
2023/03/21 09:53:07;;;;;;;23.50;14.40;;;10.00;99.90;;;;;;6276664;22;20082;-92
2023/03/21 09:55:36;;;;;;;26.52;15.82;;;10.00;99.90;;;;;;6249270;22;20065;-90
2023/03/21 09:58:03;;;;;;;24.80;15.77;;;10.00;99.90;;;;;;6248511;22;20018;-90
2023/03/21 10:00:36;;;;;;;27.73;16.33;;;10.00;99.90;;;;;;6248675;22;20026;-90
2023/03/21 10:03:06;;;;;;;30.63;18.25;;;10.10;99.90;;;;;;6248979;22;20012;-90
2023/03/21 10:05:34;;;;;;;29.75;18.42;;;10.00;99.90;;;;;;6247813;22;20031;-89
2023/03/21 10:08:03;;;;;;;32.63;19.52;;;10.10;99.90;;;;;;6249936;22;20012;-90
2023/03/21 10:10:40;;;;;;;28.67;17.65;;;10.10;99.90;;;;;;6248435;22;20309;-90
2023/03/21 10:13:14;;;;;;;36.53;22.67;;;10.10;99.90;;;;;;6249027;22;20026;-89
2023/03/21 10:15:40;;;;;;;34.83;20.33;;;10.10;99.90;;;;;;6249294;22;20069;-90
2023/03/21 10:18:07;;;;;;;27.27;16.77;;;10.10;99.90;;;;;;6275727;22;20012;-88
2023/03/21 10:20:40;;;;;;;26.15;15.80;;;10.10;99.90;;;;;;6276048;22;20035;-87
2023/03/21 10:23:11;;;;;;;23.15;15.40;;;10.10;99.90;;;;;;6249484;22;20410;-89
2023/03/21 10:25:43;;;;;;;26.95;15.60;;;10.10;99.90;;;;;;6275459;22;20467;-90
2023/03/21 10:28:16;;;;;;;29.02;14.25;;;10.10;99.90;;;;;;6248898;22;20517;-89
2023/03/21 10:30:47;;;;;;;26.63;14.65;;;10.10;99.90;;;;;;6276370;22;20516;-88
2023/03/21 10:33:19;;;;;;;23.17;13.73;;;10.10;99.90;;;;;;6274506;22;20086;-87
2023/03/21 10:35:50;;;;;;;24.25;13.68;;;10.10;99.90;;;;;;6248183;22;20456;-88
2023/03/21 10:38:18;;;;;;;21.27;12.98;;;10.10;99.90;;;;;;6276305;22;20026;-87
2023/03/21 10:40:44;;;;;;;23.05;12.68;;;10.20;99.90;;;;;;6247969;22;20043;-89
2023/03/21 10:43:36;;;;;;;21.73;13.30;;;10.20;99.90;;;;;;6248472;22;20008;-87
2023/03/21 10:46:26;;;;;;;25.33;12.60;;;10.20;99.90;;;;;;6247897;22;20054;-88
2023/03/21 10:48:52;;;;;;;22.13;13.35;;;10.20;99.90;;;;;;6248983;22;20035;-93
2023/03/21 10:51:21;;;;;;;26.40;13.40;;;10.20;99.90;;;;;;6251103;22;20047;-94
2023/03/21 10:53:54;;;;;;;23.55;13.00;;;10.20;99.90;;;;;;6250949;22;20073;-92
2023/03/21 10:56:26;;;;;;;23.17;13.02;;;10.20;99.90;;;;;;6256746;22;20099;-95
2023/03/21 10:58:55;;;;;;;20.97;13.17;;;10.30;99.90;;;;;;6280390;22;20020;-93
2023/03/21 11:01:39;;;;;;;26.08;13.43;;;10.30;99.90;;;;;;6250159;22;20090;-94
2023/03/21 11:04:12;;;;;;;21.48;12.70;;;10.30;99.90;;;;;;6250880;22;20020;-91
2023/03/21 11:06:40;;;;;;;22.27;13.13;;;10.40;99.90;;;;;;6250518;22;20023;-91
2023/03/21 11:09:12;;;;;;;23.52;12.65;;;10.40;99.90;;;;;;6276691;22;20015;-89
2023/03/21 11:12:08;;;;;;;21.07;12.20;;;10.40;99.90;;;;;;6277331;22;20035;-90
2023/03/21 11:14:47;;;;;;;27.17;12.85;;;10.50;99.90;;;;;;6233586;22;20023;-91
2023/03/21 11:17:16;;;;;;;24.70;12.88;;;10.50;99.90;;;;;;6282203;22;20016;-96
2023/03/21 11:19:57;;;;;;;20.60;12.10;;;10.60;99.90;;;;;;6254744;22;20093;-95
2023/03/21 11:22:30;;;;;;;19.40;12.05;;;10.60;99.90;;;;;;6252516;22;20016;-95
2023/03/21 11:24:59;;;;;;;22.38;12.25;;;10.70;99.90;;;;;;6252897;22;20091;-95
2023/03/21 11:27:30;;;;;;;22.50;11.10;;;10.60;99.90;;;;;;6280981;22;20077;-94
2023/03/21 11:29:58;;;;;;;21.25;11.25;;;10.70;99.90;;;;;;6280807;22;20008;-95
2023/03/21 11:32:33;;;;;;;21.77;11.98;;;10.70;99.90;;;;;;6282290;22;20026;-95
2023/03/21 11:35:02;;;;;;;20.67;11.57;;;10.80;99.90;;;;;;6255426;22;20456;-94
2023/03/21 11:37:34;;;;;;;18.98;11.35;;;10.80;99.90;;;;;;6251828;22;20016;-95
2023/03/21 11:40:22;;;;;;;20.60;10.82;;;10.80;99.90;;;;;;6282864;22;20019;-96
2023/03/21 11:42:50;;;;;;;21.83;10.95;;;10.90;99.90;;;;;;6284127;22;20088;-96
2023/03/21 11:45:21;;;;;;;16.45;9.57;;;10.90;99.90;;;;;;6255858;22;20012;-94
2023/03/21 11:47:48;;;;;;;17.67;9.25;;;10.90;99.90;;;;;;6251126;22;20079;-96
2023/03/21 11:50:35;;;;;;;17.90;9.70;;;10.90;99.90;;;;;;6251385;22;20371;-96
2023/03/21 11:53:05;;;;;;;17.38;9.10;;;11.00;99.90;;;;;;6250826;22;20055;-96
2023/03/21 11:55:46;;;;;;;18.70;10.00;;;11.00;99.90;;;;;;6279537;22;20020;-95
2023/03/21 11:58:26;;;;;;;19.55;9.55;;;11.00;99.90;;;;;;6278429;22;20081;-95
2023/03/21 12:01:31;;;;;;;15.45;8.65;;;11.10;99.90;;;;;;6278968;22;20019;-94
2023/03/21 12:04:26;;;;;;;15.95;9.35;;;11.10;99.90;;;;;;6251547;22;20030;-95
2023/03/21 12:07:19;;;;;;;19.92;9.05;;;11.10;99.90;;;;;;6253635;22;20024;-95
2023/03/21 12:10:15;;;;;;;16.70;8.93;;;11.10;99.90;;;;;;6280451;22;20440;-95
2023/03/21 12:12:58;;;;;;;19.92;9.07;;;11.20;99.90;;;;;;6254849;22;20016;-95
2023/03/21 12:15:47;;;;;;;16.65;8.52;;;11.20;99.90;;;;;;6255247;22;20022;-95
2023/03/21 12:18:22;;;;;;;17.13;8.82;;;11.20;99.90;;;;;;6283334;22;20069;-95
2023/03/21 12:20:59;;;;;;;16.17;8.43;;;11.30;99.90;;;;;;6282173;22;20024;-94
2023/03/21 12:23:31;;;;;;;14.27;8.20;;;11.30;99.90;;;;;;6259525;22;20016;-96
2023/03/21 12:26:03;;;;;;;16.25;8.57;;;11.30;99.90;;;;;;6261198;22;20016;-96
2023/03/21 12:28:34;;;;;;;16.88;8.23;;;11.30;99.90;;;;;;6287430;22;20018;-95
2023/03/21 12:31:09;;;;;;;12.75;7.22;;;11.30;99.90;;;;;;6259238;22;20405;-96
2023/03/21 12:33:47;;;;;;;14.80;8.43;;;11.30;99.90;;;;;;6287541;22;20069;-96
2023/03/21 12:36:31;;;;;;;15.40;7.32;;;11.30;99.90;;;;;;6259522;22;20444;-96
2023/03/21 12:39:03;;;;;;;13.90;8.10;;;11.30;99.90;;;;;;6257162;22;20049;-96
2023/03/21 12:41:41;;;;;;;16.95;8.23;;;11.30;99.90;;;;;;6257512;22;20026;-96
2023/03/21 12:44:15;;;;;;;17.40;8.35;;;11.30;99.90;;;;;;6284098;22;20012;-96
2023/03/21 12:47:03;;;;;;;16.08;7.45;;;11.40;99.90;;;;;;6256293;22;20448;-95
2023/03/21 12:49:37;;;;;;;13.65;7.65;;;11.30;99.90;;;;;;6257275;22;20054;-96
2023/03/21 12:52:21;;;;;;;15.20;7.75;;;11.30;99.90;;;;;;6257033;22;20011;-95
2023/03/21 12:55:03;;;;;;;17.70;8.00;;;11.40;99.90;;;;;;6255696;22;20019;-95
2023/03/21 12:57:36;;;;;;;13.82;7.35;;;11.40;99.90;;;;;;6254586;22;20012;-96